createdAt,value
2023-02-04T00:00:35.102Z,103366.81
2023-02-04T00:05:26.099Z,103357.34
2023-02-04T00:10:20.367Z,103370.13
2023-02-04T00:15:13.889Z,103373.00
2023-02-04T00:20:11.644Z,103368.47
2023-02-04T00:25:02.526Z,103371.09
2023-02-04T00:29:55.844Z,103347.44
2023-02-04T00:34:50.562Z,103358.16
2023-02-04T00:39:44.856Z,103367.13
2023-02-04T00:44:37.519Z,103372.91
2023-02-04T00:49:29.999Z,103361.38
2023-02-04T00:54:20.084Z,103373.59
2023-02-04T00:59:13.102Z,103371.69
2023-02-04T01:04:07.748Z,103375.34
2023-02-04T01:08:58.512Z,103378.19
2023-02-04T01:13:53.456Z,103369.34
2023-02-04T01:18:50.148Z,103387.81
2023-02-04T01:23:42.508Z,103393.00
2023-02-04T01:28:34.506Z,103393.63
2023-02-04T01:33:26.428Z,103397.91
2023-02-04T01:38:22.316Z,103399.09
2023-02-04T01:43:13.974Z,103416.63
2023-02-04T01:48:06.199Z,103417.38
2023-02-04T01:53:02.945Z,103365.19
2023-02-04T01:57:59.193Z,103386.69
2023-02-04T02:02:53.817Z,103417.59
2023-02-04T02:07:49.027Z,103413.97
2023-02-04T02:12:42.201Z,103405.88
2023-02-04T02:17:36.770Z,103437.03
2023-02-04T02:22:32.790Z,103432.78
2023-02-04T02:27:27.329Z,103444.19
2023-02-04T02:32:22.882Z,103437.53
2023-02-04T02:37:18.333Z,103446.09
2023-02-04T02:42:08.276Z,103433.81
2023-02-04T02:47:03.018Z,103436.16
2023-02-04T02:51:56.128Z,103453.25
2023-02-04T02:56:48.354Z,103465.22
2023-02-04T03:01:40.021Z,103453.97
2023-02-04T03:06:34.980Z,103452.88
2023-02-04T03:11:28.253Z,103456.84
2023-02-04T03:16:20.025Z,103445.25
2023-02-04T03:21:14.864Z,103436.66
2023-02-04T03:26:11.278Z,103443.16
2023-02-04T03:31:03.635Z,103453.66
2023-02-04T03:35:54.312Z,103453.47
2023-02-04T03:40:44.333Z,103466.66
2023-02-04T03:45:45.005Z,103467.63
2023-02-04T03:50:37.264Z,103464.78
2023-02-04T03:55:30.368Z,103467.38
2023-02-04T04:00:21.997Z,103469.19
2023-02-04T04:05:15.815Z,103475.53
2023-02-04T04:10:07.700Z,103462.31
2023-02-04T04:15:00.340Z,103489.44
2023-02-04T04:19:51.563Z,103483.44
2023-02-04T04:24:45.915Z,103495.56
2023-02-04T04:29:39.102Z,103495.69
2023-02-04T04:34:29.818Z,103496.03
2023-02-04T04:39:20.181Z,103485.59
2023-02-04T04:44:12.688Z,103496.16
2023-02-04T04:49:02.973Z,103495.28
2023-02-04T04:53:54.563Z,103500.72
2023-02-04T04:58:45.423Z,103504.34
2023-02-04T05:03:41.241Z,103491.75
2023-02-04T05:08:34.461Z,103516.94
2023-02-04T05:13:26.325Z,103521.94
2023-02-04T05:18:18.477Z,103527.38
2023-02-04T05:23:14.837Z,103514.22
2023-02-04T05:28:05.833Z,103532.75
2023-02-04T05:33:00.534Z,103536.16
2023-02-04T05:37:52.035Z,103533.44
2023-02-04T05:42:46.854Z,103533.44
2023-02-04T05:47:36.820Z,103535.34
2023-02-04T05:52:29.597Z,103535.63
2023-02-04T05:57:19.383Z,103532.41
2023-02-04T06:02:12.720Z,103538.53
2023-02-04T06:07:04.074Z,103541.94
2023-02-04T06:11:58.039Z,103541.00
2023-02-04T06:16:50.036Z,103550.00
2023-02-04T06:21:43.099Z,103551.75
2023-02-04T06:26:38.941Z,103571.69
2023-02-04T06:31:33.283Z,103546.94
2023-02-04T06:36:25.227Z,103575.63
2023-02-04T06:41:20.405Z,103583.09
2023-02-04T06:46:11.368Z,103583.19
2023-02-04T06:51:01.880Z,103596.56
2023-02-04T06:55:52.858Z,103587.22
2023-02-04T07:00:45.748Z,103593.28
2023-02-04T07:05:37.802Z,103590.53
2023-02-04T07:10:33.730Z,103606.19
2023-02-04T07:15:31.454Z,103603.78
2023-02-04T07:20:27.551Z,103609.94
2023-02-04T07:25:22.520Z,103609.22
2023-02-04T07:30:15.601Z,103609.16
2023-02-04T07:35:09.542Z,103609.44
2023-02-04T07:40:03.057Z,103614.00
2023-02-04T07:44:53.480Z,103619.41
2023-02-04T07:49:43.565Z,103630.78
2023-02-04T07:54:35.013Z,103623.28
2023-02-04T07:59:31.565Z,103630.38
2023-02-04T08:04:23.634Z,103629.81
2023-02-04T08:09:15.531Z,103639.59
2023-02-04T08:14:12.074Z,103643.19
2023-02-04T08:19:07.420Z,103648.63
2023-02-04T08:24:01.111Z,103648.78
2023-02-04T08:28:53.341Z,103655.09
2023-02-04T08:33:47.940Z,103649.19
2023-02-04T08:38:41.697Z,103661.75
2023-02-04T08:43:31.842Z,103659.22
2023-02-04T08:48:22.603Z,103669.03
2023-02-04T08:53:13.199Z,103683.25
2023-02-04T08:58:06.433Z,103679.72
2023-02-04T09:02:57.544Z,103671.69
2023-02-04T09:07:53.000Z,103689.63
2023-02-04T09:12:44.354Z,103701.44
2023-02-04T09:17:39.928Z,103714.22
2023-02-04T09:22:31.914Z,103721.84
2023-02-04T09:27:23.253Z,103715.78
2023-02-04T09:32:14.290Z,103715.91
2023-02-04T09:37:09.240Z,103711.91
2023-02-04T09:42:02.999Z,103725.19
2023-02-04T09:46:55.670Z,103713.44
2023-02-04T09:51:49.507Z,103714.06
2023-02-04T09:56:43.137Z,103719.31
2023-02-04T10:01:40.085Z,103744.44
2023-02-04T10:06:33.108Z,103739.03
2023-02-04T10:11:28.068Z,103745.25
2023-02-04T10:16:30.346Z,103753.16
2023-02-04T10:21:25.115Z,103757.09
2023-02-04T10:26:18.020Z,103765.34
2023-02-04T10:31:11.224Z,103766.59
2023-02-04T10:36:07.818Z,103761.91
2023-02-04T10:41:06.179Z,103759.25
2023-02-04T10:46:05.095Z,103763.19
2023-02-04T10:51:00.549Z,103761.88
2023-02-04T10:55:54.301Z,103756.84
2023-02-04T11:00:48.593Z,103766.38
2023-02-04T11:05:42.734Z,103756.72
2023-02-04T11:10:36.068Z,103767.50
2023-02-04T11:16:14.131Z,103763.19
2023-02-04T11:21:06.350Z,103747.69
2023-02-04T11:26:08.284Z,103757.88
2023-02-04T11:31:17.840Z,103743.38
2023-02-04T11:36:17.933Z,103749.16
2023-02-04T11:41:19.391Z,103749.75
2023-02-04T11:46:18.943Z,103750.56
2023-02-04T11:51:19.411Z,103740.69
2023-02-04T11:56:09.505Z,103743.19
2023-02-04T12:00:59.640Z,103741.91
2023-02-04T12:05:56.382Z,103739.06
2023-02-04T12:10:57.627Z,103742.63
2023-02-04T12:16:07.739Z,103754.50
2023-02-04T12:21:05.182Z,103748.09
2023-02-04T12:25:57.747Z,103752.31
2023-02-04T12:30:48.249Z,103761.31
2023-02-04T12:35:39.054Z,103761.50
2023-02-04T12:40:31.696Z,103753.31
2023-02-04T12:45:22.981Z,103762.13
2023-02-04T12:50:15.509Z,103773.53
2023-02-04T12:55:11.480Z,103760.41
2023-02-04T13:00:11.564Z,103743.50
2023-02-04T13:05:10.234Z,103752.38
2023-02-04T13:10:03.031Z,103755.84
2023-02-04T13:14:54.424Z,103752.38
2023-02-04T13:19:47.830Z,103711.91
2023-02-04T13:24:38.088Z,103747.13
2023-02-04T13:29:28.640Z,103742.66
2023-02-04T13:34:20.007Z,103730.38
2023-02-04T13:39:15.256Z,103711.97
2023-02-04T13:44:07.510Z,103722.03
2023-02-04T13:48:59.046Z,103722.91
2023-02-04T13:53:53.914Z,103725.72
2023-02-04T13:58:48.272Z,103729.13
2023-02-04T14:03:43.811Z,103715.38
2023-02-04T14:08:39.413Z,103720.38
2023-02-04T14:13:38.934Z,103725.63
2023-02-04T14:18:31.907Z,103737.47
2023-02-04T14:23:25.132Z,103719.09
2023-02-04T14:28:21.431Z,103725.56
2023-02-04T14:33:14.106Z,103717.59
2023-02-04T14:38:12.884Z,103733.16
2023-02-04T14:43:07.494Z,103732.03
2023-02-04T14:48:03.033Z,103711.84
2023-02-04T14:52:55.793Z,103707.91
2023-02-04T14:57:50.505Z,103730.66
2023-02-04T15:02:45.049Z,103733.06
2023-02-04T15:07:35.805Z,103718.94
2023-02-04T15:12:29.297Z,103710.50
2023-02-04T15:17:30.321Z,103729.66
2023-02-04T15:22:24.451Z,103729.38
2023-02-04T15:27:15.652Z,103734.69
2023-02-04T15:32:16.273Z,103734.00
2023-02-04T15:37:11.559Z,103755.44
2023-02-04T15:42:06.198Z,103758.19
2023-02-04T15:46:59.417Z,103759.91
2023-02-04T15:51:52.420Z,103720.63
2023-02-04T15:56:45.136Z,103769.31
2023-02-04T16:01:42.974Z,103740.97
2023-02-04T16:06:37.167Z,103743.41
2023-02-04T16:11:29.206Z,103769.13
2023-02-04T16:16:24.261Z,103776.84
2023-02-04T16:21:16.296Z,103770.38
2023-02-04T16:26:09.591Z,103767.84
2023-02-04T16:31:00.911Z,103776.50
2023-02-04T16:36:05.305Z,103786.06
2023-02-04T16:40:55.603Z,103767.69
2023-02-04T16:45:49.516Z,103786.94
2023-02-04T16:50:41.590Z,103795.63
2023-02-04T16:55:36.063Z,103795.03
2023-02-04T17:00:28.242Z,103800.00
2023-02-04T17:05:20.057Z,103779.34
2023-02-04T17:10:15.722Z,103779.34
2023-02-04T17:15:14.800Z,103792.63
2023-02-04T17:20:06.080Z,103785.78
2023-02-04T17:24:56.663Z,103801.56
2023-02-04T17:29:46.787Z,103805.19
2023-02-04T17:34:39.680Z,103798.03
2023-02-04T17:39:30.671Z,103802.19
2023-02-04T17:44:25.299Z,103814.28
2023-02-04T17:49:17.840Z,103808.94
2023-02-04T17:54:13.955Z,103820.34
2023-02-04T17:59:05.426Z,103812.97
2023-02-04T18:03:59.503Z,103821.84
2023-02-04T18:08:53.119Z,103829.22
2023-02-04T18:13:47.490Z,103819.59
2023-02-04T18:18:40.566Z,103808.16
2023-02-04T18:23:33.724Z,103822.00
2023-02-04T18:28:24.883Z,103835.03
2023-02-04T18:33:23.920Z,103821.72
2023-02-04T18:38:39.899Z,103829.78
2023-02-04T18:43:32.205Z,103823.34
2023-02-04T18:48:59.398Z,103841.88
2023-02-04T18:53:53.465Z,103841.09
2023-02-04T18:58:50.933Z,103844.59
2023-02-04T19:03:50.397Z,103836.59
2023-02-04T19:08:48.273Z,103854.13
2023-02-04T19:14:31.733Z,103838.56
2023-02-04T19:19:57.699Z,103778.03
2023-02-04T19:24:54.702Z,103839.19
2023-02-04T19:30:01.280Z,103832.72
2023-02-04T19:34:55.005Z,103846.03
2023-02-04T19:39:46.489Z,103841.44
2023-02-04T19:44:49.570Z,103839.78
2023-02-04T19:49:43.458Z,103816.66
2023-02-04T19:54:43.680Z,103823.28
2023-02-04T19:59:39.885Z,103830.41
2023-02-04T20:04:40.104Z,103814.47
2023-02-04T20:09:37.402Z,103817.75
2023-02-04T20:14:32.569Z,103817.16
2023-02-04T20:19:27.519Z,103808.38
2023-02-04T20:24:20.574Z,103785.19
2023-02-04T20:29:27.116Z,103817.53
2023-02-04T20:34:28.322Z,103825.09
2023-02-04T20:39:40.502Z,103847.88
2023-02-04T20:44:47.175Z,103853.84
2023-02-04T20:49:46.492Z,103840.81
2023-02-04T20:54:36.750Z,103840.88
2023-02-04T20:59:36.662Z,103821.00
2023-02-04T21:04:33.588Z,103811.47
2023-02-04T21:09:27.092Z,103815.16
2023-02-04T21:14:18.177Z,103807.38
2023-02-04T21:19:12.150Z,103804.34
2023-02-04T21:24:04.568Z,103806.88
2023-02-04T21:28:59.907Z,103799.03
2023-02-04T21:33:53.982Z,103820.34
2023-02-04T21:38:49.832Z,103821.97
2023-02-04T21:43:58.293Z,103825.59
2023-02-04T21:48:51.049Z,103830.72
2023-02-04T21:53:43.950Z,103819.31
2023-02-04T21:58:38.822Z,103827.09
2023-02-04T22:03:30.162Z,103817.50
2023-02-04T22:08:21.744Z,103836.81
2023-02-04T22:13:15.740Z,103834.06
2023-02-04T22:18:13.624Z,103838.38
2023-02-04T22:23:06.242Z,103840.06
2023-02-04T22:27:57.626Z,103850.72
2023-02-04T22:32:51.751Z,103844.53
2023-02-04T22:37:46.098Z,103848.81
2023-02-04T22:42:37.375Z,103853.91
2023-02-04T22:47:28.877Z,103854.75
2023-02-04T22:52:25.146Z,103845.13
2023-02-04T22:57:21.368Z,103826.66
2023-02-04T23:02:15.322Z,103822.75
2023-02-04T23:07:08.855Z,103811.91
2023-02-04T23:12:13.072Z,103816.19
2023-02-04T23:17:06.850Z,103817.03
2023-02-04T23:21:58.367Z,103810.81
2023-02-04T23:26:49.705Z,103793.34
2023-02-04T23:31:40.596Z,103789.88
2023-02-04T23:36:39.756Z,103788.81
2023-02-04T23:41:30.845Z,103801.72
2023-02-04T23:46:24.802Z,103789.41
2023-02-04T23:51:16.416Z,103791.28
2023-02-04T23:56:10.929Z,103765.16
